createdAt,value
2022-08-02T00:01:16.154Z,4192.5
2022-08-02T00:06:51.964Z,4187.8
2022-08-02T00:12:26.712Z,4188.3
2022-08-02T00:18:01.887Z,4188.2
2022-08-02T00:24:32.088Z,4186
2022-08-02T00:30:07.170Z,4188.7
2022-08-02T00:35:42.153Z,4187.2
2022-08-02T00:41:16.944Z,4187.3
2022-08-02T00:46:51.795Z,4187.5
2022-08-02T00:52:26.547Z,4187.3
2022-08-02T00:58:02.482Z,4186.5
2022-08-02T01:03:37.482Z,4187
2022-08-02T01:09:12.162Z,4186.8
2022-08-02T01:14:47.041Z,4182.3
2022-08-02T01:20:21.868Z,4186.2
2022-08-02T01:25:56.598Z,4185.2
2022-08-02T01:31:32.423Z,4183.6
2022-08-02T01:37:08.142Z,4180.6
2022-08-02T01:42:43.259Z,4184.8
2022-08-02T01:48:17.975Z,4183
2022-08-02T01:53:52.732Z,4181.8
2022-08-02T01:59:27.626Z,4182.6
2022-08-02T02:05:02.446Z,4179.8
2022-08-02T02:10:38.422Z,4183.3
2022-08-02T02:16:13.720Z,4180.8
2022-08-02T02:21:48.965Z,4179.6
2022-08-02T02:27:24.008Z,4180.5
2022-08-02T02:32:58.935Z,4180.6
2022-08-02T02:38:33.695Z,4182.8
2022-08-02T02:44:09.834Z,4179
2022-08-02T02:49:44.863Z,4180
2022-08-02T02:55:19.528Z,4179.6
2022-08-02T03:00:55.357Z,4178.6
2022-08-02T03:06:30.775Z,4181.6
2022-08-02T03:12:05.631Z,4179.8
2022-08-02T03:17:40.650Z,4178.1
2022-08-02T03:23:15.914Z,4174.4
2022-08-02T03:28:50.806Z,4179
2022-08-02T03:34:25.554Z,4176.9
2022-08-02T03:40:00.124Z,4177.5
2022-08-02T03:45:34.896Z,4175.1
2022-08-02T03:51:11.142Z,4175.8
2022-08-02T03:56:45.933Z,4178.5
2022-08-02T04:02:20.843Z,4175.9
2022-08-02T04:08:39.983Z,4176.4
2022-08-02T04:14:15.319Z,4175.9
2022-08-02T04:19:50.270Z,4174.6
2022-08-02T04:25:43.150Z,4174.6
2022-08-02T04:31:18.135Z,4174.8
2022-08-02T04:36:52.961Z,4172.6
2022-08-02T04:42:27.687Z,4173.4
2022-08-02T04:48:07.582Z,4172.9
2022-08-02T04:53:42.368Z,4174.4
2022-08-02T04:59:17.247Z,4173.9
2022-08-02T05:05:00.687Z,4173.1
2022-08-02T05:10:35.470Z,4173.6
2022-08-02T05:16:10.361Z,4173.6
2022-08-02T05:21:45.392Z,4170.9
2022-08-02T05:27:22.995Z,4171.3
2022-08-02T05:32:57.988Z,4172.4
2022-08-02T05:38:39.378Z,4171.3
2022-08-02T05:44:14.281Z,4172.3
2022-08-02T05:49:49.159Z,4171.1
2022-08-02T05:55:24.237Z,4175.3
2022-08-02T06:00:59.651Z,4176.4
2022-08-02T06:06:34.748Z,4180.6
2022-08-02T06:12:09.547Z,4185
2022-08-02T06:18:06.194Z,4178.3
2022-08-02T06:23:41.205Z,4181.3
2022-08-02T06:29:39.969Z,4180.6
2022-08-02T06:35:15.995Z,4186.5
2022-08-02T06:40:50.567Z,4187
2022-08-02T06:47:14.742Z,4190.2
2022-08-02T06:52:49.954Z,4189.2
2022-08-02T06:58:25.838Z,4191.9
2022-08-02T07:04:01.934Z,4196.9
2022-08-02T07:09:37.178Z,4206.8
2022-08-02T07:15:12.272Z,4211.3
2022-08-02T07:20:47.504Z,4212.1
2022-08-02T07:26:22.451Z,4215.8
2022-08-02T07:31:57.274Z,4212.6
2022-08-02T07:38:05.554Z,4218.8
2022-08-02T07:43:41.051Z,4221.2
2022-08-02T07:49:21.550Z,4224.7
2022-08-02T07:54:56.553Z,4223.3
2022-08-02T08:00:32.264Z,4222.3
2022-08-02T08:06:16.820Z,4222.8
2022-08-02T08:11:51.807Z,4219.3
2022-08-02T08:17:49.471Z,4207.6
2022-08-02T08:23:22.262Z,4212.8
2022-08-02T08:28:57.072Z,4213.1
2022-08-02T08:34:33.198Z,4207.1
2022-08-02T08:40:08.529Z,4206.1
2022-08-02T08:45:43.549Z,4207.9
2022-08-02T08:51:24.467Z,4216.6
2022-08-02T08:56:59.236Z,4211.1
2022-08-02T09:02:34.048Z,4215
2022-08-02T09:08:17.902Z,4215.8
2022-08-02T09:13:52.741Z,4215.3
2022-08-02T09:19:49.423Z,4211
2022-08-02T09:25:23.186Z,4215.3
2022-08-02T09:30:58.145Z,4213.5
2022-08-02T09:36:37.520Z,4210.1
2022-08-02T09:42:16.311Z,4213.8
2022-08-02T09:47:52.028Z,4210.9
2022-08-02T09:53:27.055Z,4216.6
2022-08-02T09:59:02.814Z,4213.8
2022-08-02T10:05:03.204Z,4214.1
2022-08-02T10:10:38.112Z,4208.1
2022-08-02T10:16:34.853Z,4214.6
2022-08-02T10:22:07.577Z,4217.1
2022-08-02T10:28:06.912Z,4218.5
2022-08-02T10:33:49.926Z,4217.1
2022-08-02T10:39:25.204Z,4215.1
2022-08-02T10:44:59.971Z,4217
2022-08-02T10:50:35.132Z,4213.1
2022-08-02T10:56:10.769Z,4215.6
2022-08-02T11:01:46.622Z,4215
2022-08-02T11:07:22.743Z,4219.8
2022-08-02T11:12:57.720Z,4213
2022-08-02T11:18:54.382Z,4212.1
2022-08-02T11:24:26.953Z,4210.8
2022-08-02T11:30:03.007Z,4218.8
2022-08-02T11:35:37.853Z,4215.1
2022-08-02T11:41:47.668Z,4216
2022-08-02T11:47:22.852Z,4216.8
2022-08-02T11:52:58.176Z,4215.6
2022-08-02T11:58:33.161Z,4214.5
2022-08-02T12:04:08.348Z,4217.3
2022-08-02T12:09:43.438Z,4218.3
2022-08-02T12:15:19.904Z,4221.3
2022-08-02T12:20:54.719Z,4215.3
2022-08-02T12:26:29.759Z,4218.8
2022-08-02T12:32:04.884Z,4218.8
2022-08-02T12:37:40.783Z,4217.3
2022-08-02T12:43:15.691Z,4219
2022-08-02T12:49:20.673Z,4226.5
2022-08-02T12:54:56.040Z,4222.2
2022-08-02T13:00:31.815Z,4218.2
2022-08-02T13:06:46.543Z,4220
2022-08-02T13:12:22.761Z,4226.9
2022-08-02T13:17:57.998Z,4229
2022-08-02T13:23:56.336Z,4224.4
2022-08-02T13:29:31.347Z,4220.7
2022-08-02T13:35:19.253Z,4232.9
2022-08-02T13:41:06.405Z,4222.3
2022-08-02T13:46:47.081Z,4226.4
2022-08-02T13:52:22.328Z,4227
2022-08-02T13:57:57.460Z,4223.7
2022-08-02T14:04:10.661Z,4232.7
2022-08-02T14:09:46.095Z,4215.5
2022-08-02T14:15:21.120Z,4220
2022-08-02T14:20:56.225Z,4228.5
2022-08-02T14:26:31.160Z,4219.8
2022-08-02T14:32:07.029Z,4216.8
2022-08-02T14:37:42.014Z,4222.7
2022-08-02T14:43:20.646Z,4228.9
2022-08-02T14:48:56.378Z,4213.8
2022-08-02T14:54:32.457Z,4222.3
2022-08-02T15:00:07.566Z,4224.4
2022-08-02T15:05:43.292Z,4217.8
2022-08-02T15:11:18.513Z,4227.2
2022-08-02T15:17:00.035Z,4220.7
2022-08-02T15:22:37.499Z,4232.2
2022-08-02T15:28:12.422Z,4218.5
2022-08-02T15:33:47.394Z,4228.2
2022-08-02T15:39:22.299Z,4228.4
2022-08-02T15:44:57.119Z,4230
2022-08-02T15:50:32.243Z,4224.2
2022-08-02T15:56:17.623Z,4214
2022-08-02T16:01:59.924Z,4220.7
2022-08-02T16:07:41.977Z,4217
2022-08-02T16:13:17.221Z,4223.8
2022-08-02T16:18:52.383Z,4221
2022-08-02T16:24:27.272Z,4225.5
2022-08-02T16:30:02.578Z,4224.2
2022-08-02T16:35:47.693Z,4220.3
2022-08-02T16:41:22.983Z,4220.7
2022-08-02T16:47:17.013Z,4223.7
2022-08-02T16:52:52.725Z,4226.2
2022-08-02T16:58:28.559Z,4221.8
2022-08-02T17:04:08.393Z,4222.7
2022-08-02T17:10:11.208Z,4208.3
2022-08-02T17:16:27.260Z,4209.1
2022-08-02T17:22:02.901Z,4206.9
2022-08-02T17:27:39.700Z,4210.8
2022-08-02T17:33:14.940Z,4207.3
2022-08-02T17:38:52.875Z,4208.4
2022-08-02T17:44:40.225Z,4207.9
2022-08-02T17:50:16.725Z,4205.8
2022-08-02T17:55:52.168Z,4204.8
2022-08-02T18:01:33.084Z,4205.3
2022-08-02T18:07:11.223Z,4205.4
2022-08-02T18:12:57.013Z,4205.1
2022-08-02T18:18:35.766Z,4204.2
2022-08-02T18:24:12.633Z,4204.1
2022-08-02T18:30:05.613Z,4203.1
2022-08-02T18:35:40.821Z,4202.7
2022-08-02T18:41:16.078Z,4202.9
2022-08-02T18:46:56.059Z,4202.4
2022-08-02T18:52:34.621Z,4204.1
2022-08-02T18:58:21.429Z,4202.7
2022-08-02T19:03:59.050Z,4202.6
2022-08-02T19:09:33.987Z,4202.9
2022-08-02T19:15:17.047Z,4202.7
2022-08-02T23:04:49.768Z,4142.8
2022-08-02T23:10:24.174Z,4145.3
2022-08-02T23:15:58.889Z,4145.8
2022-08-02T23:22:04.334Z,4143.4
2022-08-02T23:27:51.206Z,4145.3
2022-08-02T23:33:26.225Z,4143.4
2022-08-02T23:39:01.269Z,4141.8
2022-08-02T23:44:36.046Z,4144.3
2022-08-02T23:50:11.942Z,4143.1
2022-08-02T23:55:46.590Z,4141.4
